3PA1 weather

Navarro Airport
Sellersville, Pennsylvania, United States

Public forecast

Using degrees Fahrenheit for public forecast. Weather courtesy of forecast.io.

METAR (pilot weather report)

Closest report is Pennridge Airport, 2.4 nm (4.4 km) ENE. Retrieved 2019/07/23 16:35 UTC (14 minutes ago):

KCKZ 231635Z AUTO 33005KT 8SM BKN022 OVC031 22/19 A2987 RMK AO2

TAF (pilot weather forecast)

Closest forecast is Lehigh Valley International Airport, 17.4 nm (32.3 km) NNW. Retrieved 2019/07/23 12:39 UTC (4 hours ago):

TAF KABE 231138Z 2312/2412 VRB04KT P6SM VCSH SCT015 BKN040 TEMPO 2312/2315 6SM -SHRA BKN015 OVC040 FM231800 VRB04KT P6SM OVC050 FM232100 02005KT P6SM BKN070 FM240800 VRB04KT P6SM SCT150